createdAt,value
2018-06-09T00:00:49.986Z,86.62
2018-06-09T00:01:54.826Z,86.41
2018-06-09T00:02:59.575Z,86.06
2018-06-09T00:04:04.337Z,86.40
2018-06-09T00:05:09.053Z,86.59
2018-06-09T00:06:15.178Z,86.35
2018-06-09T00:07:21.667Z,86.34
2018-06-09T00:08:26.444Z,86.78
2018-06-09T00:09:31.827Z,86.52
2018-06-09T00:10:36.855Z,87.04
2018-06-09T00:11:41.654Z,86.88
2018-06-09T00:12:46.385Z,87.00
2018-06-09T00:13:52.234Z,86.99
2018-06-09T00:14:57.947Z,87.10
2018-06-09T00:16:05.494Z,87.06
2018-06-09T00:17:10.288Z,86.60
2018-06-09T00:18:15.399Z,86.41
2018-06-09T00:19:22.109Z,86.62
2018-06-09T00:20:27.847Z,86.44
2018-06-09T00:21:33.274Z,87.45
2018-06-09T00:22:39.774Z,87.50
2018-06-09T00:23:44.855Z,86.89
2018-06-09T00:24:50.000Z,87.21
2018-06-09T00:25:55.709Z,86.68
2018-06-09T00:27:00.458Z,86.97
2018-06-09T00:28:05.215Z,87.29
2018-06-09T00:29:09.997Z,87.12
2018-06-09T00:30:14.767Z,87.31
2018-06-09T00:31:19.969Z,87.56
2018-06-09T00:32:24.773Z,87.39
2018-06-09T00:33:29.567Z,87.30
2018-06-09T00:34:35.110Z,87.52
2018-06-09T00:35:41.443Z,87.72
2018-06-09T00:36:46.176Z,87.31
2018-06-09T00:37:51.336Z,87.25
2018-06-09T00:38:56.184Z,87.68
2018-06-09T00:40:01.524Z,87.76
2018-06-09T00:41:06.585Z,88.21
2018-06-09T00:42:11.364Z,87.87
2018-06-09T00:43:16.117Z,87.86
2018-06-09T00:44:21.241Z,88.55
2018-06-09T00:45:25.970Z,88.36
2018-06-09T00:46:30.752Z,88.33
2018-06-09T00:47:35.476Z,87.59
2018-06-09T00:48:40.576Z,88.17
2018-06-09T00:49:46.288Z,88.34
2018-06-09T00:50:52.554Z,87.93
2018-06-09T00:51:57.273Z,88.36
2018-06-09T00:53:02.043Z,88.59
2018-06-09T00:54:06.795Z,88.74
2018-06-09T00:55:12.916Z,88.61
2018-06-09T00:56:23.309Z,88.32
2018-06-09T00:57:28.177Z,88.02
2018-06-09T00:58:32.934Z,88.73
2018-06-09T00:59:37.781Z,88.29
2018-06-09T01:00:42.630Z,88.54
2018-06-09T01:01:47.457Z,88.34
2018-06-09T01:02:52.682Z,88.55
2018-06-09T01:03:57.445Z,88.86
2018-06-09T01:05:02.197Z,88.34
2018-06-09T01:06:08.990Z,88.18
2018-06-09T01:07:13.901Z,88.64
2018-06-09T01:08:18.756Z,88.29
2018-06-09T01:09:23.547Z,88.74
2018-06-09T01:10:28.666Z,88.04
2018-06-09T01:11:33.408Z,88.66
2018-06-09T01:12:38.122Z,88.15
2018-06-09T01:13:42.885Z,88.23
2018-06-09T01:14:51.108Z,88.78
2018-06-09T01:15:57.707Z,88.52
2018-06-09T01:17:02.454Z,88.69
2018-06-09T01:18:07.188Z,88.32
2018-06-09T01:19:11.953Z,88.39
2018-06-09T01:20:16.864Z,88.23
2018-06-09T01:21:22.732Z,88.78
2018-06-09T01:22:29.086Z,88.82
2018-06-09T01:23:33.805Z,87.98
2018-06-09T01:24:39.302Z,88.33
2018-06-09T01:25:44.047Z,88.31
2018-06-09T01:26:49.366Z,88.03
2018-06-09T01:27:56.796Z,87.75
2018-06-09T01:29:01.620Z,87.90
2018-06-09T01:30:06.345Z,87.59
2018-06-09T01:31:11.136Z,88.13
2018-06-09T01:32:15.906Z,87.64
2018-06-09T01:33:21.948Z,87.70
2018-06-09T01:34:27.080Z,87.81
2018-06-09T01:35:32.744Z,87.56
2018-06-09T01:36:37.539Z,87.83
2018-06-09T01:37:44.379Z,87.34
2018-06-09T01:38:50.117Z,87.86
2018-06-09T01:39:54.839Z,87.96
2018-06-09T01:41:02.406Z,88.02
2018-06-09T01:42:07.466Z,87.71
2018-06-09T01:43:12.500Z,88.66
2018-06-09T01:44:18.073Z,87.99
2018-06-09T01:45:24.355Z,88.35
2018-06-09T01:46:29.400Z,87.71
2018-06-09T01:47:34.171Z,88.60
2018-06-09T01:48:39.213Z,87.61
2018-06-09T01:49:44.059Z,88.10
2018-06-09T01:50:48.731Z,87.64
2018-06-09T01:51:54.528Z,87.81
2018-06-09T01:52:59.937Z,87.53
2018-06-09T01:54:04.606Z,87.57
2018-06-09T01:55:10.509Z,87.65
2018-06-09T01:56:15.212Z,87.95
2018-06-09T01:57:23.012Z,87.74
2018-06-09T01:58:28.522Z,87.94
2018-06-09T01:59:36.335Z,87.69
2018-06-09T02:00:41.072Z,88.27
2018-06-09T02:01:47.375Z,88.18
2018-06-09T02:02:52.296Z,87.90
2018-06-09T02:03:57.006Z,88.05
2018-06-09T02:05:02.667Z,87.62
2018-06-09T02:06:07.788Z,88.51
2018-06-09T02:07:12.479Z,88.20
2018-06-09T02:08:17.170Z,87.92
2018-06-09T02:09:21.945Z,88.12
2018-06-09T02:10:26.661Z,87.83
2018-06-09T02:11:33.979Z,88.51
2018-06-09T02:12:38.716Z,88.27
2018-06-09T02:13:44.499Z,88.81
2018-06-09T02:14:49.196Z,88.83
2018-06-09T02:15:53.884Z,88.78
2018-06-09T02:16:58.594Z,88.86
2018-06-09T02:18:03.804Z,88.92
2018-06-09T02:19:08.557Z,88.90
2018-06-09T02:20:13.819Z,88.99
2018-06-09T02:21:18.609Z,88.89
2018-06-09T02:22:23.377Z,89.06
2018-06-09T02:23:28.692Z,88.66
2018-06-09T02:24:33.441Z,88.83
2018-06-09T02:25:38.163Z,89.32
2018-06-09T02:26:42.839Z,88.93
2018-06-09T02:27:47.537Z,88.72
2018-06-09T02:28:52.899Z,88.65
2018-06-09T02:29:57.901Z,88.79
2018-06-09T02:31:02.913Z,89.14
2018-06-09T02:32:07.614Z,89.19
2018-06-09T02:33:12.376Z,89.21
2018-06-09T02:34:17.694Z,89.14
2018-06-09T02:35:22.408Z,89.55
2018-06-09T02:36:27.440Z,89.35
2018-06-09T02:37:32.141Z,89.16
2018-06-09T02:38:36.791Z,89.11
2018-06-09T02:39:42.318Z,89.32
2018-06-09T02:40:46.987Z,89.38
2018-06-09T02:41:51.648Z,89.56
2018-06-09T02:42:57.394Z,89.85
2018-06-09T02:44:02.045Z,89.44
2018-06-09T02:45:06.740Z,89.45
2018-06-09T02:46:11.427Z,89.22
2018-06-09T02:47:16.156Z,89.18
2018-06-09T02:48:20.853Z,89.41
2018-06-09T02:49:25.873Z,89.61
2018-06-09T02:50:30.554Z,89.71
2018-06-09T02:51:35.258Z,90.01
2018-06-09T02:52:39.996Z,89.27
2018-06-09T02:53:44.665Z,89.53
2018-06-09T02:54:52.070Z,89.74
2018-06-09T02:55:57.250Z,89.37
2018-06-09T02:57:02.108Z,89.82
2018-06-09T02:58:06.811Z,89.39
2018-06-09T02:59:11.456Z,89.77
2018-06-09T03:00:16.153Z,89.90
2018-06-09T03:01:20.821Z,89.57
2018-06-09T03:02:25.823Z,89.66
2018-06-09T03:03:30.505Z,88.90
2018-06-09T03:04:35.231Z,89.50
2018-06-09T03:05:39.942Z,89.10
2018-06-09T03:06:44.621Z,89.51
2018-06-09T03:07:51.004Z,89.41
2018-06-09T03:08:55.980Z,89.58
2018-06-09T03:10:00.761Z,89.24
2018-06-09T03:11:05.598Z,89.62
2018-06-09T03:12:10.437Z,89.54
2018-06-09T03:13:15.225Z,89.23
2018-06-09T03:14:20.027Z,89.26
2018-06-09T03:15:25.109Z,89.32
2018-06-09T03:16:29.989Z,89.45
2018-06-09T03:17:34.840Z,89.55
2018-06-09T03:18:39.636Z,89.21
2018-06-09T03:19:44.445Z,89.41
2018-06-09T03:20:50.647Z,89.39
2018-06-09T03:21:56.713Z,89.37
2018-06-09T03:23:01.486Z,89.14
2018-06-09T03:24:06.344Z,89.19
2018-06-09T03:25:11.249Z,89.55
2018-06-09T03:26:16.044Z,89.25
2018-06-09T03:27:20.854Z,89.56
2018-06-09T03:28:26.231Z,89.77
2018-06-09T03:29:31.037Z,89.73
2018-06-09T03:30:35.844Z,89.78
2018-06-09T03:31:40.637Z,89.37
2018-06-09T03:32:45.410Z,89.83
2018-06-09T03:33:50.653Z,89.43
2018-06-09T03:34:55.740Z,89.12
2018-06-09T03:36:00.572Z,89.54
2018-06-09T03:37:05.441Z,89.43
2018-06-09T03:38:10.324Z,89.58
2018-06-09T03:39:15.131Z,89.00
2018-06-09T03:40:19.994Z,88.96
2018-06-09T03:41:25.083Z,89.34
2018-06-09T03:42:29.899Z,89.03
2018-06-09T03:43:34.737Z,89.31
2018-06-09T03:44:39.530Z,89.74
2018-06-09T03:45:45.239Z,89.25
2018-06-09T03:46:50.070Z,89.35
2018-06-09T03:47:57.251Z,89.87
2018-06-09T03:49:02.035Z,89.64
2018-06-09T03:50:07.671Z,89.42
2018-06-09T03:51:13.335Z,89.34
2018-06-09T03:52:18.615Z,89.34
2018-06-09T03:53:24.200Z,89.57
2018-06-09T03:54:29.972Z,89.54
2018-06-09T03:55:37.847Z,89.86
2018-06-09T03:56:43.986Z,89.66
2018-06-09T03:57:48.669Z,89.58
2018-06-09T03:58:53.358Z,89.74
2018-06-09T03:59:58.112Z,89.61
2018-06-09T04:01:03.152Z,90.11
2018-06-09T04:02:07.838Z,90.07
2018-06-09T04:03:12.496Z,89.97
2018-06-09T04:04:17.223Z,89.26
2018-06-09T04:05:21.961Z,89.77
2018-06-09T04:06:26.658Z,89.65
2018-06-09T04:07:31.882Z,89.72
2018-06-09T04:08:36.596Z,89.39
2018-06-09T04:09:41.889Z,89.36
2018-06-09T04:10:46.600Z,89.35
2018-06-09T04:11:51.308Z,89.29
2018-06-09T04:12:59.937Z,89.76
2018-06-09T04:14:05.132Z,89.62
2018-06-09T04:15:09.844Z,89.53
2018-06-09T04:16:14.509Z,89.03
2018-06-09T04:17:19.181Z,89.35
2018-06-09T04:18:23.862Z,88.83
2018-06-09T04:19:29.767Z,89.03
2018-06-09T04:20:38.912Z,89.29
2018-06-09T04:21:43.580Z,89.24
2018-06-09T04:22:48.276Z,88.36
2018-06-09T04:23:53.016Z,88.79
2018-06-09T04:24:58.650Z,88.02
2018-06-09T04:26:04.228Z,88.40
2018-06-09T04:27:11.287Z,88.16
2018-06-09T04:28:17.039Z,88.63
2018-06-09T04:29:21.743Z,88.78
2018-06-09T04:30:26.443Z,88.50
2018-06-09T04:31:31.153Z,88.04
2018-06-09T04:32:35.842Z,87.72
2018-06-09T04:33:40.860Z,88.24
2018-06-09T04:34:45.632Z,88.28
2018-06-09T04:35:50.548Z,88.01
2018-06-09T04:36:55.343Z,87.56
2018-06-09T04:38:00.060Z,87.53
2018-06-09T04:39:06.581Z,88.24
2018-06-09T04:40:11.609Z,87.58
2018-06-09T04:41:16.552Z,88.30
2018-06-09T04:42:21.300Z,87.94
2018-06-09T04:43:26.044Z,88.09
2018-06-09T04:44:30.824Z,87.50
2018-06-09T04:45:36.104Z,88.03
2018-06-09T04:46:40.811Z,88.14
2018-06-09T04:47:45.546Z,88.14
2018-06-09T04:48:50.238Z,87.58
2018-06-09T04:49:54.948Z,87.77
2018-06-09T04:50:59.696Z,87.52
2018-06-09T04:52:04.732Z,87.55
2018-06-09T04:53:09.405Z,87.54
2018-06-09T04:54:14.680Z,87.38
2018-06-09T04:55:19.428Z,87.66
2018-06-09T04:56:24.332Z,87.55
2018-06-09T04:57:29.037Z,87.36
2018-06-09T04:58:34.160Z,87.55
2018-06-09T04:59:38.838Z,87.45
2018-06-09T05:00:43.591Z,87.61
2018-06-09T05:01:48.305Z,87.64
2018-06-09T05:02:55.002Z,87.60
2018-06-09T05:03:59.826Z,87.09
2018-06-09T05:05:04.979Z,86.63
2018-06-09T05:06:09.692Z,86.47
2018-06-09T05:07:17.269Z,86.50
2018-06-09T05:08:21.921Z,86.98
2018-06-09T05:09:27.146Z,86.61
2018-06-09T05:10:31.901Z,86.59
2018-06-09T05:11:37.058Z,86.82
2018-06-09T05:12:41.748Z,86.85
2018-06-09T05:13:46.604Z,86.34
2018-06-09T05:14:51.985Z,86.85
2018-06-09T05:15:56.709Z,86.23
2018-06-09T05:17:01.428Z,86.99
2018-06-09T05:18:06.589Z,87.09
2018-06-09T05:19:13.073Z,86.60
2018-06-09T05:20:18.106Z,86.72
2018-06-09T05:21:22.864Z,87.12
2018-06-09T05:22:28.012Z,86.53
2018-06-09T05:23:33.600Z,87.33
2018-06-09T05:24:39.411Z,86.63
2018-06-09T05:25:44.137Z,87.52
2018-06-09T05:26:48.827Z,87.33
2018-06-09T05:27:53.605Z,87.49
2018-06-09T05:28:58.346Z,87.74
2018-06-09T05:30:03.261Z,87.17
2018-06-09T05:31:09.455Z,87.77
2018-06-09T05:32:14.300Z,88.01
2018-06-09T05:33:19.193Z,88.03
2018-06-09T05:34:24.020Z,88.27
2018-06-09T05:35:28.816Z,88.15
2018-06-09T05:36:35.417Z,87.54
2018-06-09T05:37:40.593Z,87.72
2018-06-09T05:38:45.435Z,88.15
2018-06-09T05:39:50.309Z,87.95
2018-06-09T05:40:55.206Z,87.53
2018-06-09T05:42:00.033Z,87.66
2018-06-09T05:43:05.456Z,87.89
2018-06-09T05:44:13.681Z,87.53
2018-06-09T05:45:18.581Z,87.49
2018-06-09T05:46:23.438Z,87.19
2018-06-09T05:47:28.442Z,87.44
2018-06-09T05:48:33.363Z,87.07
2018-06-09T05:49:39.520Z,86.99
2018-06-09T05:50:45.714Z,87.66
2018-06-09T05:51:52.466Z,87.89
2018-06-09T05:52:58.454Z,87.35
2018-06-09T05:54:03.448Z,87.43
2018-06-09T05:55:08.481Z,87.90
2018-06-09T05:56:13.304Z,87.45
2018-06-09T05:57:18.617Z,87.79
2018-06-09T05:58:24.216Z,87.69
2018-06-09T05:59:29.362Z,88.00
2018-06-09T06:00:34.438Z,87.22
2018-06-09T06:01:39.322Z,87.52
2018-06-09T06:02:44.212Z,87.42
2018-06-09T06:03:50.812Z,87.33
2018-06-09T06:04:57.513Z,86.65
2018-06-09T06:06:02.403Z,87.47
2018-06-09T06:07:07.329Z,87.11
2018-06-09T06:08:12.193Z,87.18
2018-06-09T06:09:17.667Z,87.12
2018-06-09T06:10:23.043Z,86.59
2018-06-09T06:11:29.191Z,86.96
2018-06-09T06:12:35.546Z,86.25
2018-06-09T06:13:40.264Z,86.68
2018-06-09T06:14:44.943Z,86.89
2018-06-09T06:15:49.646Z,86.50
2018-06-09T06:16:54.953Z,86.65
2018-06-09T06:17:59.671Z,86.55
2018-06-09T06:19:04.360Z,86.64
2018-06-09T06:20:09.352Z,86.37
2018-06-09T06:21:14.955Z,85.99
2018-06-09T06:22:20.633Z,85.47
2018-06-09T06:23:26.765Z,85.67
2018-06-09T06:24:31.428Z,85.60
2018-06-09T06:25:36.091Z,85.84
2018-06-09T06:26:41.342Z,85.84
2018-06-09T06:27:46.408Z,86.00
2018-06-09T06:28:51.163Z,85.88
2018-06-09T06:29:56.513Z,85.69
2018-06-09T06:31:02.326Z,85.75
2018-06-09T06:32:07.133Z,85.16
2018-06-09T06:33:11.952Z,85.02
2018-06-09T06:34:17.206Z,85.13
2018-06-09T06:35:23.453Z,85.07
2018-06-09T06:36:29.493Z,84.98
2018-06-09T06:37:34.297Z,84.60
2018-06-09T06:38:39.377Z,84.41
2018-06-09T06:39:44.164Z,84.09
2018-06-09T06:40:48.986Z,83.84
2018-06-09T06:41:54.172Z,83.37
2018-06-09T06:42:59.310Z,83.55
2018-06-09T06:44:04.202Z,83.37
2018-06-09T06:45:10.022Z,83.19
2018-06-09T06:46:14.833Z,82.39
2018-06-09T06:47:19.762Z,82.06
2018-06-09T06:48:25.781Z,81.19
2018-06-09T06:49:31.311Z,81.02
2018-06-09T06:50:37.372Z,81.39
2018-06-09T06:51:42.262Z,81.60
2018-06-09T06:52:47.240Z,81.67
2018-06-09T06:53:52.048Z,82.18
2018-06-09T06:54:57.304Z,81.50
2018-06-09T06:56:04.328Z,81.47
2018-06-09T06:57:09.202Z,81.18
2018-06-09T06:58:14.052Z,81.91
2018-06-09T06:59:19.000Z,82.25
2018-06-09T07:00:24.513Z,81.66
2018-06-09T07:01:30.614Z,81.51
2018-06-09T07:02:38.193Z,81.36
2018-06-09T07:03:43.427Z,81.13
2018-06-09T07:04:48.142Z,81.14
2018-06-09T07:05:52.986Z,80.79
2018-06-09T07:06:58.200Z,80.70
2018-06-09T07:08:02.954Z,79.95
2018-06-09T07:09:08.898Z,80.34
2018-06-09T07:10:13.814Z,79.80
2018-06-09T07:11:18.635Z,80.14
2018-06-09T07:12:24.375Z,79.26
2018-06-09T07:13:29.239Z,79.70
2018-06-09T07:14:34.134Z,79.41
2018-06-09T07:15:39.818Z,79.53
2018-06-09T07:16:59.661Z,79.12
2018-06-09T07:18:05.700Z,78.85
2018-06-09T07:19:12.364Z,78.44
2018-06-09T07:25:49.244Z,78.29
2018-06-09T07:26:54.173Z,77.05
2018-06-09T07:28:03.675Z,76.49
2018-06-09T07:29:08.742Z,76.43
2018-06-09T07:30:14.856Z,76.66
2018-06-09T07:31:20.164Z,76.46
2018-06-09T07:32:25.922Z,77.10
2018-06-09T07:33:36.971Z,76.99
2018-06-09T07:34:41.827Z,77.10
2018-06-09T07:35:47.500Z,76.44
2018-06-09T07:36:52.349Z,76.60
2018-06-09T07:37:58.629Z,75.18
2018-06-09T07:39:05.320Z,75.74
2018-06-09T07:40:12.161Z,75.16
2018-06-09T07:41:19.492Z,74.79
2018-06-09T07:42:27.316Z,75.51
2018-06-09T07:43:33.440Z,75.52
2018-06-09T07:44:39.194Z,75.39
2018-06-09T07:45:45.312Z,75.77
2018-06-09T07:46:50.411Z,76.07
2018-06-09T07:47:56.293Z,75.36
2018-06-09T07:49:04.724Z,75.02
2018-06-09T07:50:13.258Z,74.71
2018-06-09T07:51:21.414Z,75.20
2018-06-09T07:52:27.774Z,75.16
2018-06-09T07:53:32.720Z,75.95
2018-06-09T07:54:37.591Z,75.10
2018-06-09T07:55:42.998Z,74.13
2018-06-09T07:56:47.964Z,73.98
2018-06-09T07:57:53.445Z,74.64
2018-06-09T07:58:58.659Z,74.43
2018-06-09T08:00:04.266Z,74.93
2018-06-09T08:01:09.009Z,74.13
2018-06-09T08:02:18.077Z,73.81
2018-06-09T08:03:23.847Z,72.23
2018-06-09T08:04:29.147Z,71.85
2018-06-09T08:05:35.337Z,72.59
2018-06-09T08:06:43.080Z,71.67
2018-06-09T08:07:47.776Z,70.40
2018-06-09T08:08:53.239Z,70.47
2018-06-09T08:09:59.114Z,70.71
2018-06-09T08:11:03.870Z,70.34
2018-06-09T08:12:09.978Z,69.97
2018-06-09T08:13:15.170Z,70.00
2018-06-09T08:14:22.525Z,69.20
2018-06-09T08:15:27.755Z,69.97
2018-06-09T08:16:33.011Z,69.01
2018-06-09T08:17:39.654Z,69.52
2018-06-09T08:18:51.618Z,68.56
2018-06-09T08:19:57.266Z,68.18
2018-06-09T08:21:02.658Z,67.38
2018-06-09T08:22:09.366Z,67.69
2018-06-09T08:23:15.926Z,66.51
2018-06-09T08:24:21.074Z,66.13
2018-06-09T08:25:26.623Z,65.52
2018-06-09T08:26:31.722Z,64.80
2018-06-09T08:27:37.354Z,63.95
2018-06-09T08:28:42.558Z,63.92
2018-06-09T08:29:48.046Z,63.00
2018-06-09T08:30:54.716Z,62.46
2018-06-09T08:32:00.856Z,62.92
2018-06-09T08:33:05.822Z,62.87
2018-06-09T08:34:10.528Z,63.67
2018-06-09T08:35:16.518Z,63.52
2018-06-09T08:36:22.490Z,62.96
2018-06-09T08:37:30.257Z,62.70
2018-06-09T08:38:37.150Z,62.47
2018-06-09T08:39:42.414Z,62.11
2018-06-09T08:40:48.359Z,61.45
2018-06-09T08:41:56.505Z,61.63
2018-06-09T08:43:03.773Z,60.65
2018-06-09T08:44:10.515Z,60.69
2018-06-09T08:45:17.460Z,60.46
2018-06-09T08:46:23.836Z,59.90
2018-06-09T08:47:30.147Z,60.04
2018-06-09T08:48:35.746Z,60.80
2018-06-09T08:49:42.505Z,61.05
2018-06-09T08:50:48.581Z,61.04
2018-06-09T08:51:53.979Z,60.90
2018-06-09T08:53:00.656Z,61.51
2018-06-09T08:54:05.489Z,60.97
2018-06-09T08:55:10.811Z,60.95
2018-06-09T08:56:16.426Z,59.91
2018-06-09T08:57:23.873Z,60.32
2018-06-09T08:58:28.735Z,59.49
2018-06-09T08:59:33.640Z,59.55
2018-06-09T09:00:38.525Z,59.83
2018-06-09T09:01:44.248Z,58.58
2018-06-09T09:02:50.790Z,58.36
2018-06-09T09:03:55.748Z,59.46
2018-06-09T09:05:00.644Z,59.09
2018-06-09T09:06:06.322Z,58.41
2018-06-09T09:07:11.818Z,57.53
2018-06-09T09:08:17.041Z,57.67
2018-06-09T09:09:22.796Z,57.86
2018-06-09T09:10:28.313Z,58.38
2018-06-09T09:11:33.648Z,58.15
2018-06-09T09:12:40.294Z,58.35
2018-06-09T09:13:47.401Z,58.10
2018-06-09T09:14:53.357Z,58.71
2018-06-09T09:15:59.534Z,58.69
2018-06-09T09:17:04.468Z,59.55
2018-06-09T09:18:11.142Z,59.68
2018-06-09T09:19:16.786Z,59.67
2018-06-09T09:20:24.919Z,59.08
2018-06-09T09:21:29.671Z,58.97
2018-06-09T09:22:34.527Z,59.12
2018-06-09T09:23:40.027Z,59.62
2018-06-09T09:24:44.754Z,59.59
2018-06-09T09:25:49.628Z,59.83
2018-06-09T09:26:55.395Z,60.68
2018-06-09T09:28:01.949Z,60.12
2018-06-09T09:29:08.944Z,60.06
2018-06-09T09:30:16.258Z,59.65
2018-06-09T09:31:22.451Z,59.60
2018-06-09T09:32:27.537Z,59.95
2018-06-09T09:33:32.253Z,59.10
2018-06-09T09:34:40.107Z,58.80
2018-06-09T09:35:44.978Z,58.67
2018-06-09T09:36:50.143Z,58.71
2018-06-09T09:37:55.333Z,58.74
2018-06-09T09:39:03.128Z,57.68
2018-06-09T09:40:09.538Z,58.24
2018-06-09T09:41:15.443Z,59.21
2018-06-09T09:42:20.708Z,59.23
2018-06-09T09:43:25.527Z,59.72
2018-06-09T09:44:43.093Z,60.08
2018-06-09T09:45:51.004Z,60.39
2018-06-09T09:46:56.408Z,61.23
2018-06-09T09:48:01.913Z,60.35
2018-06-09T09:49:07.536Z,59.46
2018-06-09T09:50:12.416Z,58.57
2018-06-09T09:51:17.901Z,56.97
2018-06-09T09:52:23.617Z,57.62
2018-06-09T09:53:29.430Z,57.02
2018-06-09T09:54:36.595Z,56.95
2018-06-09T09:55:42.096Z,57.35
2018-06-09T09:56:47.873Z,57.35
2018-06-09T09:58:00.053Z,57.12
2018-06-09T09:59:06.357Z,56.97
2018-06-09T10:00:11.313Z,57.23
2018-06-09T10:01:16.996Z,57.36
2018-06-09T10:02:23.203Z,56.99
2018-06-09T10:03:29.257Z,57.90
2018-06-09T10:04:35.770Z,58.35
2018-06-09T10:05:45.339Z,58.63
2018-06-09T10:06:51.572Z,58.65
2018-06-09T10:07:57.920Z,57.94
2018-06-09T10:09:02.867Z,57.68
2018-06-09T10:10:09.353Z,57.34
2018-06-09T10:11:14.577Z,57.94
2018-06-09T10:12:21.267Z,57.76
2018-06-09T10:13:27.649Z,57.10
2018-06-09T10:14:33.385Z,57.00
2018-06-09T10:15:39.946Z,57.78
2018-06-09T10:16:45.686Z,57.35
2018-06-09T10:17:50.528Z,57.70
2018-06-09T10:18:56.341Z,58.60
2018-06-09T10:20:04.167Z,58.22
2018-06-09T10:21:09.353Z,58.04
2018-06-09T10:22:17.318Z,57.53
2018-06-09T10:23:24.731Z,58.14
2018-06-09T10:24:30.658Z,58.59
2018-06-09T10:25:35.762Z,58.96
2018-06-09T10:26:41.227Z,58.22
2018-06-09T10:27:47.307Z,58.56
2018-06-09T10:28:52.152Z,60.07
2018-06-09T10:29:59.126Z,59.32
2018-06-09T10:31:03.955Z,59.85
2018-06-09T10:32:09.983Z,59.54
2018-06-09T10:33:15.124Z,60.26
2018-06-09T10:34:20.015Z,60.66
2018-06-09T10:35:26.385Z,61.39
2018-06-09T10:36:31.511Z,60.88
2018-06-09T10:37:36.366Z,60.78
2018-06-09T10:38:42.232Z,60.31
2018-06-09T10:45:18.910Z,60.42
2018-06-09T10:46:25.350Z,59.25
2018-06-09T10:47:31.230Z,59.60
2018-06-09T10:48:36.139Z,58.59
2018-06-09T10:49:40.977Z,58.69
2018-06-09T10:50:47.133Z,58.58
2018-06-09T10:51:53.535Z,59.66
2018-06-09T10:53:00.877Z,59.59
2018-06-09T10:54:07.573Z,59.85
2018-06-09T10:55:12.989Z,60.23
2018-06-09T10:56:17.867Z,60.66
2018-06-09T10:57:24.277Z,59.52
2018-06-09T10:58:31.415Z,60.47
2018-06-09T10:59:36.253Z,60.78
2018-06-09T11:00:43.291Z,61.08
2018-06-09T11:01:52.430Z,61.35
2018-06-09T11:02:59.387Z,62.26
2018-06-09T11:04:16.018Z,62.82
2018-06-09T11:05:24.148Z,63.05
2018-06-09T11:06:30.373Z,61.77
2018-06-09T11:07:35.805Z,61.75
2018-06-09T11:08:43.800Z,61.44
2018-06-09T11:09:49.460Z,60.67
2018-06-09T11:10:57.675Z,60.23
2018-06-09T11:12:03.504Z,60.71
2018-06-09T11:13:10.150Z,61.15
2018-06-09T11:14:16.750Z,61.52
2018-06-09T11:15:24.794Z,61.55
2018-06-09T11:16:30.349Z,60.18
2018-06-09T11:17:36.510Z,59.65
2018-06-09T11:18:42.316Z,58.39
2018-06-09T11:19:47.442Z,58.64
2018-06-09T11:20:54.368Z,57.63
2018-06-09T11:21:59.814Z,57.37
2018-06-09T11:23:08.648Z,56.25
2018-06-09T11:24:17.870Z,55.69
2018-06-09T11:25:23.582Z,57.22
2018-06-09T11:26:29.492Z,57.68
2018-06-09T11:27:35.262Z,57.60
2018-06-09T11:28:41.450Z,57.48
2018-06-09T11:29:46.185Z,57.35
2018-06-09T11:30:51.305Z,57.04
2018-06-09T11:31:56.228Z,57.00
2018-06-09T11:33:01.156Z,56.68
2018-06-09T11:34:06.375Z,56.58
2018-06-09T11:35:11.830Z,55.97
2018-06-09T11:36:20.624Z,55.43
2018-06-09T11:37:27.371Z,55.57
2018-06-09T11:38:34.381Z,56.02
2018-06-09T11:39:39.264Z,56.47
2018-06-09T11:40:44.117Z,55.33
2018-06-09T11:41:51.000Z,55.31
2018-06-09T11:42:55.962Z,56.28
2018-06-09T11:44:01.538Z,56.09
2018-06-09T11:45:08.532Z,55.61
2018-06-09T11:46:16.894Z,55.03
2018-06-09T11:47:27.773Z,54.31
2018-06-09T11:48:36.188Z,55.00
2018-06-09T11:49:41.928Z,54.24
2018-06-09T11:50:47.992Z,53.86
2018-06-09T11:51:53.645Z,54.00
2018-06-09T11:52:58.515Z,53.73
2018-06-09T11:54:04.238Z,54.00
2018-06-09T11:55:10.065Z,54.25
2018-06-09T11:56:14.905Z,54.97
2018-06-09T11:57:21.469Z,55.64
2018-06-09T11:58:26.447Z,56.05
2018-06-09T11:59:31.275Z,56.06
2018-06-09T12:00:36.753Z,55.45
2018-06-09T12:01:41.662Z,55.02
2018-06-09T12:02:49.452Z,54.87
2018-06-09T12:03:55.770Z,54.12
2018-06-09T12:05:24.564Z,54.32
2018-06-09T12:06:32.057Z,54.30
2018-06-09T12:07:38.702Z,54.88
2018-06-09T12:08:44.149Z,55.30
2018-06-09T12:09:49.188Z,54.91
2018-06-09T12:10:57.761Z,54.70
2018-06-09T12:12:05.519Z,53.37
2018-06-09T12:13:11.339Z,53.83
2018-06-09T12:14:22.578Z,53.35
2018-06-09T12:15:32.031Z,53.89
2018-06-09T12:16:37.738Z,54.39
2018-06-09T12:17:42.550Z,53.51
2018-06-09T12:18:50.345Z,55.04
2018-06-09T12:19:55.226Z,54.44
2018-06-09T12:21:00.238Z,56.26
2018-06-09T12:22:05.023Z,56.28
2018-06-09T12:23:11.200Z,55.17
2018-06-09T12:24:16.701Z,55.26
2018-06-09T12:25:23.338Z,54.28
2018-06-09T12:26:29.719Z,55.27
2018-06-09T12:27:35.190Z,56.42
2018-06-09T12:28:41.970Z,56.37
2018-06-09T12:29:47.337Z,56.18
2018-06-09T12:30:52.014Z,54.93
2018-06-09T12:31:57.243Z,55.50
2018-06-09T12:33:02.570Z,54.55
2018-06-09T12:34:10.169Z,55.63
2018-06-09T12:35:15.587Z,53.71
2018-06-09T12:36:20.327Z,53.78
2018-06-09T12:37:25.156Z,52.49
2018-06-09T12:38:31.051Z,51.47
2018-06-09T12:39:35.777Z,52.31
2018-06-09T12:40:40.460Z,52.05
2018-06-09T12:41:46.432Z,52.02
2018-06-09T12:42:51.566Z,52.17
2018-06-09T12:43:56.294Z,52.57
2018-06-09T12:45:02.176Z,51.97
2018-06-09T12:46:06.933Z,51.23
2018-06-09T12:47:11.622Z,50.88
2018-06-09T12:48:16.438Z,50.91
2018-06-09T12:49:21.227Z,50.71
2018-06-09T12:50:26.103Z,50.45
2018-06-09T12:51:31.595Z,49.67
2018-06-09T12:52:37.296Z,49.65
2018-06-09T12:53:42.629Z,49.75
2018-06-09T12:54:48.795Z,49.17
2018-06-09T12:55:53.611Z,49.89
2018-06-09T12:57:02.555Z,49.49
2018-06-09T12:58:07.847Z,49.25
2018-06-09T12:59:25.750Z,49.26
2018-06-09T13:00:31.675Z,48.92
2018-06-09T13:01:38.467Z,48.15
2018-06-09T13:02:43.590Z,48.32
2018-06-09T13:03:50.689Z,48.02
2018-06-09T13:04:56.870Z,47.88
2018-06-09T13:06:04.039Z,47.43
2018-06-09T13:07:12.388Z,47.60
2018-06-09T13:08:20.024Z,47.80
2018-06-09T13:09:25.192Z,47.57
2018-06-09T13:10:30.707Z,47.36
2018-06-09T13:11:36.620Z,47.74
2018-06-09T13:12:42.480Z,48.38
2018-06-09T13:13:48.515Z,48.96
2018-06-09T13:14:53.575Z,49.61
2018-06-09T13:15:58.498Z,49.93
2018-06-09T13:17:04.419Z,50.06
2018-06-09T13:18:11.996Z,51.68
2018-06-09T13:19:16.864Z,52.06
2018-06-09T13:20:22.320Z,53.36
2018-06-09T13:21:29.453Z,53.85
2018-06-09T13:22:36.044Z,54.89
2018-06-09T13:23:41.429Z,55.75
2018-06-09T13:24:46.316Z,55.86
2018-06-09T13:25:52.089Z,57.63
2018-06-09T13:26:59.280Z,58.26
2018-06-09T13:28:05.023Z,60.51
2018-06-09T13:29:09.988Z,61.06
2018-06-09T13:30:15.901Z,61.62
2018-06-09T13:31:22.759Z,61.56
2018-06-09T13:32:29.042Z,62.42
2018-06-09T13:33:34.413Z,62.60
2018-06-09T13:34:41.442Z,62.71
2018-06-09T13:35:48.104Z,63.33
2018-06-09T13:36:56.550Z,64.83
2018-06-09T13:38:02.249Z,65.62
2018-06-09T13:39:10.018Z,66.53
2018-06-09T13:40:16.363Z,66.24
2018-06-09T13:41:24.285Z,65.76
2018-06-09T13:42:30.467Z,66.18
2018-06-09T13:43:35.199Z,67.28
2018-06-09T13:44:41.545Z,67.76
2018-06-09T13:45:46.248Z,68.34
2018-06-09T13:46:53.522Z,69.07
2018-06-09T13:48:00.676Z,69.78
2018-06-09T13:49:07.565Z,70.27
2018-06-09T13:50:12.313Z,70.57
2018-06-09T13:51:18.242Z,71.75
2018-06-09T13:52:23.638Z,72.34
2018-06-09T13:53:30.626Z,72.13
2018-06-09T13:54:35.692Z,72.29
2018-06-09T13:55:41.243Z,71.30
2018-06-09T13:56:46.912Z,70.82
2018-06-09T13:57:53.965Z,70.98
2018-06-09T13:58:58.678Z,70.36
2018-06-09T14:00:05.353Z,70.53
2018-06-09T14:01:11.284Z,69.65
2018-06-09T14:02:17.919Z,69.94
2018-06-09T14:03:23.816Z,69.45
2018-06-09T14:04:29.353Z,68.79
2018-06-09T14:05:36.027Z,68.22
2018-06-09T14:06:42.096Z,68.98
2018-06-09T14:07:47.530Z,69.43
2018-06-09T14:08:53.353Z,69.03
2018-06-09T14:09:58.196Z,68.87
2018-06-09T14:11:07.792Z,69.35
2018-06-09T14:12:14.046Z,69.69
2018-06-09T14:13:20.340Z,69.44
2018-06-09T14:14:27.136Z,68.83
2018-06-09T14:15:33.069Z,68.47
2018-06-09T14:16:38.759Z,67.50
2018-06-09T14:17:43.457Z,67.96